createdAt,value
2018-09-28T05:55:38.589Z,10.60
2018-09-28T06:05:43.713Z,10.50
2018-09-28T06:10:41.408Z,10.50
2018-09-28T06:15:39.089Z,10.90
2018-09-28T06:20:36.768Z,11.00
2018-09-28T06:25:34.517Z,11.20
2018-09-28T06:30:32.205Z,11.30
2018-09-28T06:35:29.930Z,11.40
2018-09-28T06:40:27.616Z,11.40
2018-09-28T06:45:25.293Z,9.90
2018-09-28T06:50:22.989Z,11.80
2018-09-28T06:55:20.721Z,12.00
2018-09-28T07:00:18.527Z,12.20
2018-09-28T07:05:16.289Z,12.50
2018-09-28T07:10:13.977Z,12.70
2018-09-28T07:15:11.656Z,12.90
2018-09-28T07:20:09.401Z,13.20
2018-09-28T07:25:07.190Z,13.50
2018-09-28T07:30:05.277Z,13.70
2018-09-28T07:35:03.001Z,13.90
2018-09-28T07:40:00.685Z,14.00
2018-09-28T07:44:58.384Z,14.30
2018-09-28T07:49:56.065Z,14.50
2018-09-28T07:54:53.744Z,14.60
2018-09-28T07:59:51.412Z,14.90
2018-09-28T08:04:49.109Z,15.10
2018-09-28T08:09:46.826Z,15.30
2018-09-28T08:14:44.536Z,15.50
2018-09-28T08:19:42.364Z,15.70
2018-09-28T08:24:40.133Z,15.80
2018-09-28T08:29:38.837Z,16.30
2018-09-28T08:34:36.525Z,16.40
2018-09-28T08:39:34.223Z,16.60
2018-09-28T08:44:31.908Z,16.80
2018-09-28T08:49:29.613Z,17.00
2018-09-28T08:54:27.331Z,17.40
2018-09-28T08:59:25.061Z,17.80
2018-09-28T09:04:22.893Z,18.20
2018-09-28T09:09:20.617Z,18.40
2018-09-28T09:14:18.320Z,18.80
2018-09-28T09:19:16.058Z,19.10
2018-09-28T09:24:13.758Z,19.30
2018-09-28T09:29:11.485Z,19.30
2018-09-28T09:34:09.173Z,19.60
2018-09-28T09:39:08.197Z,19.90
2018-09-28T09:44:05.921Z,20.30
2018-09-28T09:49:03.630Z,20.50
2018-09-28T09:54:01.333Z,20.70
2018-09-28T09:58:59.005Z,20.80
2018-09-28T10:03:59.149Z,21.10
2018-09-28T10:08:56.846Z,21.20
2018-09-28T10:13:54.536Z,21.30
2018-09-28T10:18:52.237Z,21.50
2018-09-28T10:23:49.938Z,21.50
2018-09-28T10:28:47.673Z,21.60
2018-09-28T10:33:45.390Z,21.50
2018-09-28T10:38:43.068Z,21.60
2018-09-28T10:43:40.756Z,21.70
2018-09-28T10:48:38.477Z,21.80
2018-09-28T10:53:36.225Z,22.10
2018-09-28T10:58:33.891Z,22.30
2018-09-28T11:03:31.626Z,22.40
2018-09-28T11:08:29.369Z,22.50
2018-09-28T11:13:27.000Z,22.40
2018-09-28T11:18:24.672Z,22.60
2018-09-28T11:23:22.376Z,22.80
2018-09-28T11:28:20.073Z,23.90
2018-09-28T11:33:17.898Z,22.70
